Time;durP1;ratioP1;P1;durP2;ratioP2;P2;SDS_P1;SDS_P2;PMS_P1;PMS_P2;Temp;Humidity;BMP_temperature;BMP_pressure;BME280_temperature;BME280_humidity;BME280_pressure;Samples;Min_cycle;Max_cycle;Signal;HPM_P1;HPM_P2
2021/11/04 00:00:21;;;;;;;8.18;3.20;;;;;;;;;;5059345;28;20164;-78
2021/11/04 00:02:47;;;;;;;5.68;2.70;;;;;;;;;;5059272;28;20021;-76
2021/11/04 00:05:13;;;;;;;3.88;2.63;;;;;;;;;;5060343;28;20096;-76
2021/11/04 00:07:40;;;;;;;3.83;2.67;;;;;;;;;;5058874;28;20101;-78
2021/11/04 00:10:07;;;;;;;8.57;2.97;;;;;;;;;;5059059;28;20422;-78
2021/11/04 00:12:33;;;;;;;5.40;2.63;;;;;;;;;;5059682;28;20025;-78
2021/11/04 00:14:59;;;;;;;4.88;2.83;;;;;;;;;;5057912;28;20077;-78
2021/11/04 00:17:25;;;;;;;4.65;2.65;;;;;;;;;;5057341;28;20017;-78
2021/11/04 00:19:51;;;;;;;7.13;3.00;;;;;;;;;;5058864;28;20044;-76
2021/11/04 00:22:18;;;;;;;7.97;3.78;;;;;;;;;;5058834;28;20053;-77
2021/11/04 00:24:44;;;;;;;7.25;3.47;;;;;;;;;;5059767;28;20494;-78
2021/11/04 00:27:10;;;;;;;4.18;2.72;;;;;;;;;;5060441;28;20021;-80
2021/11/04 00:29:36;;;;;;;6.03;3.15;;;;;;;;;;5060105;28;20029;-78
2021/11/04 00:32:03;;;;;;;4.90;2.72;;;;;;;;;;5057915;28;20479;-78
2021/11/04 00:34:29;;;;;;;5.22;3.00;;;;;;;;;;5059107;28;20091;-78
2021/11/04 00:36:55;;;;;;;6.20;2.78;;;;;;;;;;5058384;28;20496;-78
2021/11/04 00:39:21;;;;;;;8.55;2.78;;;;;;;;;;5059247;28;20045;-77
2021/11/04 00:41:47;;;;;;;6.22;3.08;;;;;;;;;;5058751;28;20029;-78
2021/11/04 00:44:13;;;;;;;6.43;2.90;;;;;;;;;;5058275;28;20059;-78
2021/11/04 00:46:40;;;;;;;6.55;3.03;;;;;;;;;;5059468;28;20502;-77
2021/11/04 00:49:06;;;;;;;6.70;2.83;;;;;;;;;;5059081;28;20543;-75
2021/11/04 00:51:32;;;;;;;7.72;2.75;;;;;;;;;;5039561;28;20021;-77
2021/11/04 00:53:58;;;;;;;7.65;3.00;;;;;;;;;;5059813;28;20029;-77
2021/11/04 00:56:25;;;;;;;9.35;3.10;;;;;;;;;;5059215;28;20383;-77
2021/11/04 00:58:51;;;;;;;10.82;3.30;;;;;;;;;;5059079;28;20499;-78
2021/11/04 01:01:18;;;;;;;8.00;3.28;;;;;;;;;;5059338;28;20032;-79
2021/11/04 01:03:44;;;;;;;7.93;3.40;;;;;;;;;;5058990;28;20028;-78
2021/11/04 01:06:10;;;;;;;7.50;2.72;;;;;;;;;;5060068;28;20021;-77
2021/11/04 01:08:36;;;;;;;5.50;2.67;;;;;;;;;;5057533;28;20032;-79
2021/11/04 01:11:02;;;;;;;10.35;3.13;;;;;;;;;;5058313;28;20025;-79
2021/11/04 01:13:28;;;;;;;7.47;3.22;;;;;;;;;;5059721;28;20021;-78
2021/11/04 01:15:54;;;;;;;4.53;3.22;;;;;;;;;;5058481;28;20467;-77
2021/11/04 01:18:20;;;;;;;5.60;2.95;;;;;;;;;;5040108;28;20549;-78
2021/11/04 01:20:46;;;;;;;6.53;3.28;;;;;;;;;;5058746;28;20104;-78
2021/11/04 01:23:13;;;;;;;3.22;2.40;;;;;;;;;;5058725;28;20074;-77
2021/11/04 01:25:39;;;;;;;6.22;2.72;;;;;;;;;;5058780;28;20032;-77
2021/11/04 01:28:08;;;;;;;7.30;3.22;;;;;;;;;;5059057;28;20045;-78
2021/11/04 01:30:36;;;;;;;6.82;3.22;;;;;;;;;;5045534;28;20020;-78
2021/11/04 01:33:02;;;;;;;7.03;3.25;;;;;;;;;;5062131;28;20020;-78
2021/11/04 01:35:31;;;;;;;7.25;2.90;;;;;;;;;;5045041;28;20039;-76
2021/11/04 01:37:58;;;;;;;4.97;2.65;;;;;;;;;;5063582;28;20024;-77
2021/11/04 01:40:24;;;;;;;6.65;2.80;;;;;;;;;;5062397;28;20052;-77
2021/11/04 01:42:50;;;;;;;7.18;2.90;;;;;;;;;;5044206;28;20389;-78
2021/11/04 01:45:16;;;;;;;8.65;3.42;;;;;;;;;;5062946;28;20442;-76
2021/11/04 01:47:45;;;;;;;10.30;2.90;;;;;;;;;;5063781;28;20037;-78
2021/11/04 01:50:12;;;;;;;4.43;2.60;;;;;;;;;;5063531;28;20103;-78
2021/11/04 01:52:38;;;;;;;5.43;2.63;;;;;;;;;;5062798;28;20082;-77
2021/11/04 01:55:04;;;;;;;3.75;2.70;;;;;;;;;;5045411;28;20049;-77
2021/11/04 01:57:30;;;;;;;5.90;2.40;;;;;;;;;;5063355;28;20028;-77
2021/11/04 01:59:56;;;;;;;5.95;2.58;;;;;;;;;;5063370;28;20025;-77
2021/11/04 02:02:24;;;;;;;5.45;2.35;;;;;;;;;;5044004;28;20029;-78
2021/11/04 02:04:50;;;;;;;7.10;2.33;;;;;;;;;;5061950;28;20024;-79
2021/11/04 02:07:25;;;;;;;3.13;2.10;;;;;;;;;;5044506;28;20025;-78
2021/11/04 02:10:02;;;;;;;7.18;2.17;;;;;;;;;;5045200;28;20025;-78
2021/11/04 02:12:34;;;;;;;5.97;3.08;;;;;;;;;;5062085;28;20021;-76
2021/11/04 02:15:01;;;;;;;6.05;3.05;;;;;;;;;;5062659;28;20128;-78
2021/11/04 02:17:28;;;;;;;4.90;2.65;;;;;;;;;;5061686;28;20029;-79
2021/11/04 02:19:56;;;;;;;6.60;2.35;;;;;;;;;;5062126;28;20503;-76
2021/11/04 02:22:28;;;;;;;3.75;2.80;;;;;;;;;;5043962;28;20029;-77
2021/11/04 02:25:07;;;;;;;6.88;2.53;;;;;;;;;;5062311;28;20036;-77
2021/11/04 02:27:33;;;;;;;3.50;2.08;;;;;;;;;;5044021;28;20029;-76
2021/11/04 02:30:00;;;;;;;5.55;2.30;;;;;;;;;;5061814;28;20025;-76
2021/11/04 02:32:26;;;;;;;4.05;3.17;;;;;;;;;;5043335;28;20025;-78
2021/11/04 02:34:53;;;;;;;5.90;3.03;;;;;;;;;;5061084;28;20057;-78
2021/11/04 02:37:20;;;;;;;3.67;2.20;;;;;;;;;;5043748;28;20028;-77
2021/11/04 02:39:46;;;;;;;7.75;2.50;;;;;;;;;;5060582;28;20053;-77
2021/11/04 02:42:13;;;;;;;2.90;2.20;;;;;;;;;;5043421;28;20528;-76
2021/11/04 02:44:40;;;;;;;3.05;2.22;;;;;;;;;;5060372;28;20114;-77
2021/11/04 02:47:07;;;;;;;7.70;2.17;;;;;;;;;;5059405;28;20025;-76
2021/11/04 02:49:36;;;;;;;6.03;2.35;;;;;;;;;;5059130;28;20035;-77
2021/11/04 02:52:03;;;;;;;3.22;2.40;;;;;;;;;;5061228;28;20052;-78
2021/11/04 02:54:29;;;;;;;3.08;2.13;;;;;;;;;;5061116;28;20566;-77
2021/11/04 02:56:56;;;;;;;7.65;2.08;;;;;;;;;;5062440;28;20088;-78
2021/11/04 02:59:23;;;;;;;4.88;2.05;;;;;;;;;;5060550;28;20044;-78
2021/11/04 03:01:51;;;;;;;5.07;2.63;;;;;;;;;;5060366;28;20032;-77
2021/11/04 03:04:17;;;;;;;4.18;3.33;;;;;;;;;;5060916;28;20021;-77
2021/11/04 03:06:44;;;;;;;7.85;2.20;;;;;;;;;;5061644;28;20028;-77
2021/11/04 03:09:10;;;;;;;6.03;2.00;;;;;;;;;;5062624;28;20052;-76
2021/11/04 03:11:36;;;;;;;6.03;2.20;;;;;;;;;;5062650;28;20052;-76
2021/11/04 03:14:03;;;;;;;4.63;2.47;;;;;;;;;;5062513;28;20021;-75
2021/11/04 03:16:31;;;;;;;4.05;2.22;;;;;;;;;;5061319;28;20032;-76
2021/11/04 03:18:58;;;;;;;5.10;2.13;;;;;;;;;;5062467;28;20036;-77
2021/11/04 03:21:29;;;;;;;4.68;2.03;;;;;;;;;;5041357;28;20079;-77
2021/11/04 03:23:56;;;;;;;4.82;2.22;;;;;;;;;;5059718;28;20070;-77
2021/11/04 03:26:25;;;;;;;5.57;2.38;;;;;;;;;;5061707;28;20037;-77
2021/11/04 03:28:51;;;;;;;9.75;2.30;;;;;;;;;;5041675;28;20029;-78
2021/11/04 03:31:17;;;;;;;4.55;2.17;;;;;;;;;;5043255;28;20042;-77
2021/11/04 03:33:44;;;;;;;4.00;2.30;;;;;;;;;;5059753;28;20384;-77
2021/11/04 03:36:10;;;;;;;4.75;2.20;;;;;;;;;;5060095;28;20033;-78
2021/11/04 03:38:36;;;;;;;5.13;1.98;;;;;;;;;;5059658;28;20057;-77
2021/11/04 03:41:03;;;;;;;4.50;1.98;;;;;;;;;;5060331;28;20060;-78
2021/11/04 03:43:29;;;;;;;3.15;2.13;;;;;;;;;;5062045;28;20037;-76
2021/11/04 03:45:56;;;;;;;4.00;1.92;;;;;;;;;;5059148;28;20039;-77
2021/11/04 03:48:22;;;;;;;6.85;2.13;;;;;;;;;;5060535;28;20380;-77
2021/11/04 03:50:49;;;;;;;5.97;2.30;;;;;;;;;;5060250;28;20043;-78
2021/11/04 03:53:16;;;;;;;2.78;1.70;;;;;;;;;;5060759;28;20028;-78
2021/11/04 03:55:43;;;;;;;6.45;2.45;;;;;;;;;;5059399;28;20059;-77
2021/11/04 03:58:09;;;;;;;4.22;2.10;;;;;;;;;;5059502;28;20430;-76
2021/11/04 04:00:35;;;;;;;4.55;1.85;;;;;;;;;;5040824;28;20033;-76
2021/11/04 04:03:02;;;;;;;5.50;1.88;;;;;;;;;;5059025;28;20051;-77
2021/11/04 04:05:28;;;;;;;6.50;2.10;;;;;;;;;;5058377;28;20029;-77
2021/11/04 04:07:54;;;;;;;25.02;2.30;;;;;;;;;;5059690;28;20028;-76
2021/11/04 04:10:20;;;;;;;4.45;1.90;;;;;;;;;;5059583;28;20074;-77
2021/11/04 04:12:47;;;;;;;3.20;1.90;;;;;;;;;;5058969;28;20036;-76
2021/11/04 04:15:13;;;;;;;3.58;1.90;;;;;;;;;;5060470;28;20031;-77
2021/11/04 04:17:39;;;;;;;4.10;2.00;;;;;;;;;;5059866;28;20029;-79
2021/11/04 04:20:05;;;;;;;2.67;2.33;;;;;;;;;;5058443;28;20017;-77
2021/11/04 04:22:31;;;;;;;7.35;1.90;;;;;;;;;;5059821;28;20111;-77
2021/11/04 04:24:57;;;;;;;5.30;1.70;;;;;;;;;;5059366;28;20029;-79
2021/11/04 04:27:24;;;;;;;2.53;1.60;;;;;;;;;;5060395;28;20033;-76
2021/11/04 04:29:50;;;;;;;3.53;1.52;;;;;;;;;;5057778;28;20021;-78
2021/11/04 04:32:16;;;;;;;2.55;1.88;;;;;;;;;;5059019;28;20025;-77
2021/11/04 04:34:42;;;;;;;8.05;2.60;;;;;;;;;;5057849;28;20025;-77
2021/11/04 04:37:09;;;;;;;6.53;2.13;;;;;;;;;;5058425;28;20025;-78
2021/11/04 04:39:37;;;;;;;3.80;2.28;;;;;;;;;;5039478;28;20056;-76
2021/11/04 04:42:03;;;;;;;4.85;1.88;;;;;;;;;;5038785;28;20455;-77
2021/11/04 04:44:29;;;;;;;3.20;1.67;;;;;;;;;;5042431;28;20041;-77
2021/11/04 04:46:55;;;;;;;2.90;1.73;;;;;;;;;;5061509;28;20061;-77
2021/11/04 04:49:21;;;;;;;2.08;1.60;;;;;;;;;;5061633;28;20025;-77
2021/11/04 04:51:48;;;;;;;4.75;1.88;;;;;;;;;;5059446;28;20028;-78
2021/11/04 04:54:14;;;;;;;6.57;2.03;;;;;;;;;;5061903;28;20021;-77
2021/11/04 04:56:40;;;;;;;4.32;1.88;;;;;;;;;;5059720;28;20521;-77
2021/11/04 04:59:06;;;;;;;8.60;2.25;;;;;;;;;;5060006;28;20390;-79
2021/11/04 05:01:32;;;;;;;7.68;1.63;;;;;;;;;;5061121;28;20025;-77
2021/11/04 05:03:58;;;;;;;3.60;1.60;;;;;;;;;;5043305;28;20123;-77
2021/11/04 05:06:24;;;;;;;7.90;2.83;;;;;;;;;;5062265;28;20029;-79
2021/11/04 05:08:50;;;;;;;2.97;1.65;;;;;;;;;;5062117;28;20037;-74
2021/11/04 05:11:16;;;;;;;5.97;2.10;;;;;;;;;;5044311;28;20361;-76
2021/11/04 05:13:42;;;;;;;3.50;1.77;;;;;;;;;;5061906;28;20379;-76
2021/11/04 05:16:08;;;;;;;5.03;2.03;;;;;;;;;;5062241;28;20107;-78
2021/11/04 05:18:34;;;;;;;2.22;1.70;;;;;;;;;;5062854;28;20029;-77
2021/11/04 05:21:00;;;;;;;3.08;1.90;;;;;;;;;;5062732;28;20484;-77
2021/11/04 05:23:27;;;;;;;4.85;1.90;;;;;;;;;;5063137;28;20036;-78
2021/11/04 05:25:53;;;;;;;7.78;2.80;;;;;;;;;;5064975;28;20387;-77
2021/11/04 05:28:19;;;;;;;4.00;1.88;;;;;;;;;;5062690;28;20502;-77
2021/11/04 05:30:45;;;;;;;2.08;1.60;;;;;;;;;;5063776;28;20029;-77
2021/11/04 05:33:11;;;;;;;2.40;1.90;;;;;;;;;;5063424;28;20028;-77
2021/11/04 05:35:37;;;;;;;6.47;1.60;;;;;;;;;;5064741;28;20029;-76
2021/11/04 05:38:03;;;;;;;2.35;1.63;;;;;;;;;;5065182;28;20028;-77
2021/11/04 05:40:29;;;;;;;2.65;1.73;;;;;;;;;;5064977;28;20072;-76
2021/11/04 05:42:55;;;;;;;3.72;1.77;;;;;;;;;;5044540;28;20029;-78
2021/11/04 05:45:21;;;;;;;4.00;1.75;;;;;;;;;;5063382;28;20112;-76
2021/11/04 05:47:47;;;;;;;1.88;1.67;;;;;;;;;;5063119;28;20021;-78
2021/11/04 05:50:13;;;;;;;4.28;1.77;;;;;;;;;;5063631;28;20049;-77
2021/11/04 05:52:39;;;;;;;3.33;1.75;;;;;;;;;;5061946;28;20028;-78
2021/11/04 05:55:06;;;;;;;3.42;2.42;;;;;;;;;;5045103;28;20028;-77
2021/11/04 05:57:32;;;;;;;5.13;1.90;;;;;;;;;;5062601;28;20387;-77
2021/11/04 05:59:58;;;;;;;5.63;1.80;;;;;;;;;;5067152;28;20044;-76
2021/11/04 06:02:24;;;;;;;2.03;1.63;;;;;;;;;;5069581;28;20104;-75
2021/11/04 06:04:50;;;;;;;4.78;2.00;;;;;;;;;;5052949;28;20029;-76
2021/11/04 06:07:17;;;;;;;1.85;1.60;;;;;;;;;;5071863;28;20021;-77
2021/11/04 06:09:43;;;;;;;2.45;1.70;;;;;;;;;;5054196;28;20089;-77
2021/11/04 06:12:10;;;;;;;2.38;1.77;;;;;;;;;;5070223;28;20024;-76
2021/11/04 06:14:36;;;;;;;7.15;1.80;;;;;;;;;;5049456;28;20025;-76
2021/11/04 06:17:02;;;;;;;2.80;1.65;;;;;;;;;;5068921;28;20029;-77
2021/11/04 06:19:28;;;;;;;6.72;2.60;;;;;;;;;;5070388;28;20021;-76
2021/11/04 06:21:54;;;;;;;5.03;1.85;;;;;;;;;;5068019;28;20036;-75
2021/11/04 06:24:20;;;;;;;2.40;1.98;;;;;;;;;;5068870;28;20094;-76
2021/11/04 06:26:47;;;;;;;4.88;2.00;;;;;;;;;;5069605;28;20033;-75
2021/11/04 06:29:13;;;;;;;3.92;1.73;;;;;;;;;;5068848;28;20104;-77
2021/11/04 06:31:39;;;;;;;4.88;2.15;;;;;;;;;;5067948;28;20025;-75
2021/11/04 06:34:06;;;;;;;4.75;2.00;;;;;;;;;;5063320;28;20025;-78
2021/11/04 06:36:32;;;;;;;4.40;1.77;;;;;;;;;;5062895;28;20036;-79
2021/11/04 06:39:00;;;;;;;2.20;1.90;;;;;;;;;;5061928;28;20053;-79
2021/11/04 06:41:26;;;;;;;2.25;1.98;;;;;;;;;;5063894;28;20043;-76
2021/11/04 06:43:52;;;;;;;3.83;1.73;;;;;;;;;;5062031;28;20356;-78
2021/11/04 06:46:22;;;;;;;2.00;1.70;;;;;;;;;;5043542;28;20028;-78
2021/11/04 06:48:51;;;;;;;4.78;1.85;;;;;;;;;;5064158;28;20080;-77
2021/11/04 06:51:19;;;;;;;3.05;2.38;;;;;;;;;;5063505;28;20025;-77
2021/11/04 06:53:53;;;;;;;4.30;1.90;;;;;;;;;;5063078;28;20021;-78
2021/11/04 06:56:20;;;;;;;5.00;2.00;;;;;;;;;;5044143;28;20112;-77
2021/11/04 06:58:48;;;;;;;3.60;1.60;;;;;;;;;;5061591;28;20032;-78
2021/11/04 07:01:18;;;;;;;7.15;1.80;;;;;;;;;;5043231;28;20036;-77
2021/11/04 07:04:04;;;;;;;3.92;1.70;;;;;;;;;;5061233;28;20029;-75
2021/11/04 07:06:31;;;;;;;2.85;1.98;;;;;;;;;;5047402;28;20041;-75
2021/11/04 07:09:02;;;;;;;5.30;1.85;;;;;;;;;;5066140;28;20077;-76
2021/11/04 07:11:31;;;;;;;5.55;1.85;;;;;;;;;;5064592;28;20025;-77
2021/11/04 07:14:00;;;;;;;4.15;1.83;;;;;;;;;;5048863;28;20021;-75
2021/11/04 07:16:27;;;;;;;4.20;1.92;;;;;;;;;;5061798;28;20059;-78
2021/11/04 07:18:54;;;;;;;2.28;1.70;;;;;;;;;;5063820;28;20055;-76
2021/11/04 07:21:23;;;;;;;3.35;1.58;;;;;;;;;;5063125;28;20024;-77
2021/11/04 07:24:08;;;;;;;8.85;2.70;;;;;;;;;;5065649;28;20025;-76
2021/11/04 07:26:36;;;;;;;4.43;2.05;;;;;;;;;;5066614;28;20032;-76
2021/11/04 07:29:03;;;;;;;3.08;1.80;;;;;;;;;;5068852;28;20075;-77
2021/11/04 07:31:31;;;;;;;3.13;2.58;;;;;;;;;;5063576;28;20172;-78
2021/11/04 07:33:57;;;;;;;1.95;1.70;;;;;;;;;;5063221;28;20017;-77
2021/11/04 07:36:24;;;;;;;3.70;2.00;;;;;;;;;;5061746;28;20545;-77
2021/11/04 07:38:51;;;;;;;2.58;1.85;;;;;;;;;;5061573;28;20045;-77
2021/11/04 07:41:17;;;;;;;2.63;2.08;;;;;;;;;;5061334;28;20028;-78
2021/11/04 07:43:43;;;;;;;5.28;1.90;;;;;;;;;;5062670;28;20562;-76
2021/11/04 07:46:09;;;;;;;6.47;2.30;;;;;;;;;;5062221;28;20103;-77
2021/11/04 07:48:35;;;;;;;3.88;1.83;;;;;;;;;;5062935;28;20029;-76
2021/11/04 07:51:01;;;;;;;2.50;1.90;;;;;;;;;;5062457;28;20035;-78
2021/11/04 07:53:27;;;;;;;3.15;1.63;;;;;;;;;;5062888;28;20052;-77
2021/11/04 07:55:54;;;;;;;8.27;2.17;;;;;;;;;;5059906;28;20024;-78
2021/11/04 07:58:21;;;;;;;4.78;2.28;;;;;;;;;;5062034;28;20021;-76
2021/11/04 08:00:48;;;;;;;5.78;2.65;;;;;;;;;;5062141;28;20044;-77
2021/11/04 08:03:14;;;;;;;3.85;2.10;;;;;;;;;;5061817;28;20457;-77
2021/11/04 08:05:41;;;;;;;2.90;1.73;;;;;;;;;;5061517;28;20021;-77
2021/11/04 08:08:07;;;;;;;3.63;1.60;;;;;;;;;;5060434;28;20025;-76
2021/11/04 08:10:33;;;;;;;2.75;1.80;;;;;;;;;;5059250;28;20029;-77
2021/11/04 08:13:06;;;;;;;1.88;1.65;;;;;;;;;;5060038;28;20033;-78
2021/11/04 08:15:32;;;;;;;7.18;2.08;;;;;;;;;;5061687;28;20037;-77
2021/11/04 08:18:00;;;;;;;3.40;1.50;;;;;;;;;;5060679;28;20040;-78
2021/11/04 08:20:26;;;;;;;5.38;1.85;;;;;;;;;;5062072;28;20025;-78
2021/11/04 08:22:52;;;;;;;6.60;2.60;;;;;;;;;;5063737;28;20025;-78
2021/11/04 08:25:24;;;;;;;8.35;1.88;;;;;;;;;;5052004;28;20021;-82
2021/11/04 08:27:50;;;;;;;3.22;1.80;;;;;;;;;;5049883;28;20147;-81
2021/11/04 08:30:16;;;;;;;12.50;2.75;;;;;;;;;;5054934;28;20047;-80
2021/11/04 08:32:45;;;;;;;3.28;1.80;;;;;;;;;;5068167;28;20025;-82
2021/11/04 08:35:12;;;;;;;5.07;2.05;;;;;;;;;;5065478;28;20033;-80
2021/11/04 08:37:38;;;;;;;2.45;2.00;;;;;;;;;;5070105;28;20032;-79
2021/11/04 08:40:05;;;;;;;3.67;2.17;;;;;;;;;;5073988;28;20051;-79
2021/11/04 08:42:35;;;;;;;9.63;2.05;;;;;;;;;;5050634;28;20021;-80
2021/11/04 08:45:04;;;;;;;3.67;1.80;;;;;;;;;;5050550;28;20071;-81
2021/11/04 08:47:30;;;;;;;4.57;2.00;;;;;;;;;;5049117;28;20021;-80
2021/11/04 08:49:57;;;;;;;4.15;2.10;;;;;;;;;;5051266;28;20033;-78
2021/11/04 08:52:24;;;;;;;7.15;2.05;;;;;;;;;;5050065;28;20522;-76
2021/11/04 08:54:50;;;;;;;4.55;2.00;;;;;;;;;;5069000;28;20406;-79
2021/11/04 08:57:16;;;;;;;3.00;1.85;;;;;;;;;;5047300;28;20030;-80
2021/11/04 08:59:42;;;;;;;5.28;1.90;;;;;;;;;;5046485;28;20021;-78
2021/11/04 09:02:12;;;;;;;6.30;1.98;;;;;;;;;;5047295;28;20033;-78
2021/11/04 09:04:42;;;;;;;3.55;1.70;;;;;;;;;;5045269;28;20048;-80
2021/11/04 09:07:09;;;;;;;6.05;1.70;;;;;;;;;;5063578;28;20035;-79
2021/11/04 09:09:35;;;;;;;5.40;2.17;;;;;;;;;;5066218;28;20391;-80
2021/11/04 09:12:01;;;;;;;4.60;2.10;;;;;;;;;;5064613;28;20108;-78
2021/11/04 09:14:27;;;;;;;5.68;1.95;;;;;;;;;;5066096;28;20029;-79
2021/11/04 09:16:53;;;;;;;9.63;2.30;;;;;;;;;;5046223;28;20112;-80
2021/11/04 09:19:19;;;;;;;7.80;2.55;;;;;;;;;;5051697;28;20029;-79
2021/11/04 09:21:45;;;;;;;6.55;2.10;;;;;;;;;;5048467;28;20030;-79
2021/11/04 09:24:12;;;;;;;5.35;2.15;;;;;;;;;;5031199;28;20030;-80
2021/11/04 09:26:38;;;;;;;5.40;2.42;;;;;;;;;;5037740;28;20013;-79
2021/11/04 09:29:05;;;;;;;4.22;1.95;;;;;;;;;;5074116;28;20040;-79
2021/11/04 09:31:32;;;;;;;3.83;2.00;;;;;;;;;;5072185;28;20033;-78
2021/11/04 09:34:10;;;;;;;3.65;2.08;;;;;;;;;;5055557;28;20025;-80
2021/11/04 09:36:36;;;;;;;2.90;1.90;;;;;;;;;;5060923;28;20049;-79
2021/11/04 09:39:03;;;;;;;6.85;2.13;;;;;;;;;;5070278;28;20037;-79
2021/11/04 09:41:29;;;;;;;4.28;1.98;;;;;;;;;;5055607;28;20033;-80
2021/11/04 09:43:57;;;;;;;2.78;1.52;;;;;;;;;;5065167;28;20032;-80
2021/11/04 09:49:20;;;;;;;4.53;1.90;;;;;;;;;;5058539;22;20055;-79
2021/11/04 09:51:53;;;;;;;3.55;2.30;;;;;;;;;;5060122;28;20028;-80
2021/11/04 09:54:28;;;;;;;6.38;2.10;;;;;;;;;;5095255;22;20065;-76
2021/11/04 09:56:56;;;;;;;5.63;2.33;;;;;;;;;;5030678;28;20160;-82
2021/11/04 09:59:33;;;;;;;5.25;1.95;;;;;;;;;;5523203;22;20054;-80
2021/11/04 10:02:14;;;;;;;6.22;2.42;;;;;;;;;;5041532;28;20022;-77
2021/11/04 10:04:42;;;;;;;4.07;2.30;;;;;;;;;;5049455;28;20027;-77
2021/11/04 10:07:09;;;;;;;2.42;1.80;;;;;;;;;;5057782;28;20033;-77
2021/11/04 10:09:35;;;;;;;3.75;1.95;;;;;;;;;;5048103;28;20026;-76
2021/11/04 10:12:05;;;;;;;5.40;2.35;;;;;;;;;;5047409;28;20018;-79
2021/11/04 10:14:32;;;;;;;3.97;2.72;;;;;;;;;;5045266;28;20025;-78
2021/11/04 10:16:58;;;;;;;4.40;3.33;;;;;;;;;;5032331;28;20045;-78
2021/11/04 10:19:24;;;;;;;6.32;2.28;;;;;;;;;;5044467;28;20028;-78
2021/11/04 10:21:55;;;;;;;6.85;2.40;;;;;;;;;;5033807;28;20026;-80
2021/11/04 10:24:34;;;;;;;5.07;2.17;;;;;;;;;;5027477;28;20049;-78
2021/11/04 10:27:00;;;;;;;4.10;2.08;;;;;;;;;;5024780;28;20039;-79
2021/11/04 10:29:36;;;;;;;7.28;2.20;;;;;;;;;;5030120;28;20086;-77
2021/11/04 10:32:02;;;;;;;7.93;2.50;;;;;;;;;;5029788;28;20022;-80
2021/11/04 10:34:35;;;;;;;7.68;2.08;;;;;;;;;;5040078;28;20081;-79
2021/11/04 10:37:17;;;;;;;5.40;2.28;;;;;;;;;;5036309;28;20030;-79
2021/11/04 10:39:47;;;;;;;6.50;1.90;;;;;;;;;;5009880;28;20045;-76
2021/11/04 10:42:20;;;;;;;3.55;1.98;;;;;;;;;;5046879;28;20103;-80
2021/11/04 10:44:49;;;;;;;4.28;2.10;;;;;;;;;;5040799;28;20044;-76
2021/11/04 10:47:26;;;;;;;4.47;2.15;;;;;;;;;;5038632;28;20492;-80
2021/11/04 10:49:52;;;;;;;5.40;3.33;;;;;;;;;;5041282;28;20010;-79
2021/11/04 10:52:23;;;;;;;16.95;8.05;;;;;;;;;;5049720;28;20022;-80
2021/11/04 10:54:50;;;;;;;6.95;3.08;;;;;;;;;;5048842;28;20029;-80
2021/11/04 10:57:38;;;;;;;3.67;2.42;;;;;;;;;;5047393;28;20037;-80
2021/11/04 11:00:14;;;;;;;6.53;2.70;;;;;;;;;;5046542;28;20056;-80
2021/11/04 11:02:53;;;;;;;3.70;2.25;;;;;;;;;;5025009;28;20026;-80
2021/11/04 11:05:27;;;;;;;11.40;5.80;;;;;;;;;;5019956;28;20026;-79
2021/11/04 11:07:54;;;;;;;7.55;3.92;;;;;;;;;;5004995;28;20037;-80
2021/11/04 11:10:20;;;;;;;5.82;2.00;;;;;;;;;;5012185;28;20076;-80
2021/11/04 11:12:50;;;;;;;9.23;5.60;;;;;;;;;;5028552;28;20459;-80
2021/11/04 11:15:16;;;;;;;7.85;4.10;;;;;;;;;;5028910;28;20365;-80
2021/11/04 11:17:43;;;;;;;3.65;3.22;;;;;;;;;;5027373;28;20022;-80
2021/11/04 11:20:19;;;;;;;6.60;3.28;;;;;;;;;;5032063;28;20020;-80
2021/11/04 11:22:48;;;;;;;6.68;2.33;;;;;;;;;;5029811;28;20022;-80
2021/11/04 11:25:26;;;;;;;5.20;2.42;;;;;;;;;;5026243;28;20022;-80
2021/11/04 11:27:53;;;;;;;11.75;3.10;;;;;;;;;;5025567;28;20022;-82
2021/11/04 11:30:19;;;;;;;4.18;2.03;;;;;;;;;;5027031;28;20049;-81
2021/11/04 11:32:50;;;;;;;3.78;2.30;;;;;;;;;;5022923;28;20468;-80
2021/11/04 11:35:20;;;;;;;4.28;1.92;;;;;;;;;;5025782;28;20033;-81
2021/11/04 11:37:55;;;;;;;4.30;2.35;;;;;;;;;;5025934;28;20014;-82
2021/11/04 11:40:26;;;;;;;3.72;1.90;;;;;;;;;;5027341;28;20026;-81
2021/11/04 11:42:57;;;;;;;5.68;2.50;;;;;;;;;;5028033;28;20018;-80
2021/11/04 11:45:23;;;;;;;5.72;2.63;;;;;;;;;;5026649;28;20038;-79
2021/11/04 11:48:09;;;;;;;6.00;2.20;;;;;;;;;;5028220;28;20053;-78
2021/11/04 11:50:45;;;;;;;3.20;1.92;;;;;;;;;;5007808;28;20452;-79
2021/11/04 11:53:28;;;;;;;3.35;1.90;;;;;;;;;;5005477;28;20033;-81
2021/11/04 11:55:55;;;;;;;2.90;2.20;;;;;;;;;;5013294;28;20043;-80
2021/11/04 11:58:34;;;;;;;2.90;1.95;;;;;;;;;;5004681;28;20011;-80
2021/11/04 12:01:06;;;;;;;2.42;1.92;;;;;;;;;;5024083;28;20102;-80
2021/11/04 12:03:36;;;;;;;5.00;2.30;;;;;;;;;;5026380;28;20057;-80
2021/11/04 12:06:05;;;;;;;5.45;2.10;;;;;;;;;;5026209;28;20029;-80
2021/11/04 12:08:38;;;;;;;4.85;2.20;;;;;;;;;;5026535;28;20022;-80
2021/11/04 12:11:09;;;;;;;4.78;1.98;;;;;;;;;;5026740;28;20025;-80
2021/11/04 12:13:39;;;;;;;3.10;1.80;;;;;;;;;;5025756;28;20030;-78
2021/11/04 12:16:06;;;;;;;2.80;1.70;;;;;;;;;;5025446;28;20047;-82
2021/11/04 12:18:32;;;;;;;5.90;2.80;;;;;;;;;;5022732;28;20030;-84
2021/11/04 12:20:59;;;;;;;3.78;2.03;;;;;;;;;;5022184;28;20038;-83
2021/11/04 12:23:35;;;;;;;3.35;1.90;;;;;;;;;;5017427;28;20029;-81
2021/11/04 12:26:05;;;;;;;2.95;1.70;;;;;;;;;;5016009;28;20480;-80
2021/11/04 12:28:42;;;;;;;4.85;3.05;;;;;;;;;;5014679;28;20033;-82
2021/11/04 12:31:37;;;;;;;2.95;1.90;;;;;;;;;;5022107;28;20499;-83
2021/11/04 12:34:04;;;;;;;4.45;1.77;;;;;;;;;;5017851;28;20046;-79
2021/11/04 12:36:31;;;;;;;1.73;1.55;;;;;;;;;;5021746;28;20107;-80
2021/11/04 12:38:57;;;;;;;2.63;1.60;;;;;;;;;;5018407;28;20030;-82
2021/11/04 12:41:23;;;;;;;4.68;1.60;;;;;;;;;;5022147;28;20061;-83
2021/11/04 12:43:50;;;;;;;4.80;2.00;;;;;;;;;;5021185;28;20393;-79
2021/11/04 12:46:18;;;;;;;2.97;1.70;;;;;;;;;;5028454;28;20037;-78
2021/11/04 12:48:48;;;;;;;4.68;1.95;;;;;;;;;;5029955;28;20026;-80
2021/11/04 12:54:02;;;;;;;2.78;1.80;;;;;;;;;;5159237;22;20089;-78
2021/11/04 12:56:47;;;;;;;2.72;1.70;;;;;;;;;;5045568;28;20026;-78
2021/11/04 12:59:39;;;;;;;3.33;1.63;;;;;;;;;;5028914;28;20030;-79
2021/11/04 13:07:26;;;;;;;3.47;2.10;;;;;;;;;;5301427;22;20045;-79
2021/11/04 13:09:53;;;;;;;1.95;1.60;;;;;;;;;;5071814;28;20096;-81
2021/11/04 13:12:24;;;;;;;4.13;1.80;;;;;;;;;;5066455;28;20064;-82
2021/11/04 13:14:58;;;;;;;4.75;1.90;;;;;;;;;;5063622;28;20033;-80
2021/11/04 13:17:31;;;;;;;2.58;2.15;;;;;;;;;;5060009;28;20321;-80
2021/11/04 13:20:05;;;;;;;3.72;1.77;;;;;;;;;;5054253;28;20029;-81
2021/11/04 13:22:33;;;;;;;5.37;1.50;;;;;;;;;;5046389;28;20064;-78
2021/11/04 13:25:00;;;;;;;2.08;1.42;;;;;;;;;;5060169;28;20295;-80
2021/11/04 13:27:26;;;;;;;5.03;1.35;;;;;;;;;;5067306;28;20040;-79
2021/11/04 13:29:53;;;;;;;5.85;1.50;;;;;;;;;;5072632;28;20029;-80
2021/11/04 13:32:20;;;;;;;3.53;2.17;;;;;;;;;;5073274;28;20037;-81
2021/11/04 13:34:47;;;;;;;1.55;1.40;;;;;;;;;;5069763;28;20745;-80
2021/11/04 13:37:14;;;;;;;2.25;1.60;;;;;;;;;;5065686;28;20021;-79
2021/11/04 13:39:40;;;;;;;1.95;1.60;;;;;;;;;;5064959;28;20025;-80
2021/11/04 13:42:06;;;;;;;1.80;1.67;;;;;;;;;;5064431;28;20078;-80
2021/11/04 13:44:34;;;;;;;3.78;1.38;;;;;;;;;;5068899;28;20033;-81
2021/11/04 13:47:00;;;;;;;2.90;1.45;;;;;;;;;;5060758;28;20032;-79
2021/11/04 13:49:26;;;;;;;3.78;2.22;;;;;;;;;;5055677;28;20029;-80
2021/11/04 13:51:53;;;;;;;3.22;1.35;;;;;;;;;;5070656;28;20041;-81
2021/11/04 13:54:19;;;;;;;1.75;1.42;;;;;;;;;;5075392;28;20029;-81
2021/11/04 13:59:57;;;;;;;1.48;1.38;;;;;;;;;;5675361;22;20057;-80
2021/11/04 14:02:41;;;;;;;1.52;1.27;;;;;;;;;;5020121;28;20034;-81
2021/11/04 14:05:28;;;;;;;3.53;1.80;;;;;;;;;;5048591;28;20026;-81
2021/11/04 14:08:06;;;;;;;3.65;1.50;;;;;;;;;;5044731;28;20036;-79
2021/11/04 14:10:34;;;;;;;4.18;1.70;;;;;;;;;;5030672;28;20026;-81
2021/11/04 14:13:03;;;;;;;4.53;1.80;;;;;;;;;;5027191;28;20048;-79
2021/11/04 14:15:39;;;;;;;1.60;1.50;;;;;;;;;;5020371;28;20061;-79
2021/11/04 14:18:28;;;;;;;3.92;2.20;;;;;;;;;;5042258;28;20060;-77
2021/11/04 14:20:59;;;;;;;4.57;2.05;;;;;;;;;;5029963;28;20086;-79
2021/11/04 14:23:26;;;;;;;4.97;1.90;;;;;;;;;;5025826;28;20018;-78
2021/11/04 14:25:54;;;;;;;5.22;2.28;;;;;;;;;;5030240;28;20034;-80
2021/11/04 14:28:29;;;;;;;4.15;2.35;;;;;;;;;;5022877;28;20034;-79
2021/11/04 14:30:58;;;;;;;5.03;2.78;;;;;;;;;;5027867;28;20028;-78
2021/11/04 14:33:29;;;;;;;2.63;1.92;;;;;;;;;;5023926;28;20027;-78
2021/11/04 14:36:04;;;;;;;3.85;1.75;;;;;;;;;;5012055;28;20026;-81
2021/11/04 14:38:36;;;;;;;2.95;2.15;;;;;;;;;;5026658;28;20026;-81
2021/11/04 14:41:05;;;;;;;3.50;2.00;;;;;;;;;;5014145;28;20057;-81
2021/11/04 14:46:11;;;;;;;1.98;1.63;;;;;;;;;;5104157;22;20049;-78
2021/11/04 14:48:37;;;;;;;2.45;1.77;;;;;;;;;;5048557;28;20064;-81
2021/11/04 14:51:12;;;;;;;5.28;2.25;;;;;;;;;;5045709;28;20030;-79
2021/11/04 14:53:41;;;;;;;2.80;1.70;;;;;;;;;;5048063;28;20077;-80
2021/11/04 14:56:07;;;;;;;3.28;1.90;;;;;;;;;;5030706;28;20422;-80
2021/11/04 14:58:41;;;;;;;4.57;2.38;;;;;;;;;;5041442;28;20503;-79
2021/11/04 15:01:07;;;;;;;4.28;3.05;;;;;;;;;;5037528;28;20025;-79
2021/11/04 15:03:55;;;;;;;4.65;3.13;;;;;;;;;;5029193;28;20100;-77
2021/11/04 15:06:21;;;;;;;3.33;1.50;;;;;;;;;;5049175;28;20399;-78